Time;durP1;ratioP1;P1;durP2;ratioP2;P2;SDS_P1;SDS_P2;PMS_P1;PMS_P2;Temp;Humidity;BMP_temperature;BMP_pressure;BME280_temperature;BME280_humidity;BME280_pressure;Samples;Min_cycle;Max_cycle;Signal;HPM_P1;HPM_P2
2022/03/12 00:00:07;;;;;;;;;;;10.30;48.00;;;;;;8411685;28;19921;-69
2022/03/12 00:04:09;;;;;;;;;;;10.40;48.20;;;;;;8405031;28;19935;-69
2022/03/12 00:08:12;;;;;;;;;;;10.40;48.30;;;;;;8425034;28;20006;-69
2022/03/12 00:12:15;;;;;;;;;;;10.40;48.40;;;;;;8416069;28;19924;-69
2022/03/12 00:16:25;;;;;;;;;;;10.40;48.80;;;;;;8413018;28;19920;-69
2022/03/12 00:20:29;;;;;;;;;;;10.40;48.80;;;;;;8409657;28;19920;-69
2022/03/12 00:24:31;;;;;;;;;;;10.40;49.20;;;;;;8426457;28;19920;-69
2022/03/12 00:28:33;;;;;;;;;;;10.40;49.00;;;;;;8416070;28;19920;-69
2022/03/12 00:32:36;;;;;;;;;;;10.50;48.40;;;;;;8420036;28;20295;-69
2022/03/12 00:36:38;;;;;;;;;;;10.50;49.00;;;;;;8417750;28;19935;-69
2022/03/12 00:40:40;;;;;;;;;;;10.50;48.90;;;;;;8420781;28;19955;-69
2022/03/12 00:44:41;;;;;;;;;;;10.50;49.20;;;;;;8425954;28;19943;-69
2022/03/12 00:48:43;;;;;;;;;;;10.50;49.30;;;;;;8424049;28;20228;-69
2022/03/12 00:52:45;;;;;;;;;;;10.50;49.10;;;;;;8409838;28;19924;-69
2022/03/12 00:56:46;;;;;;;;;;;10.50;49.10;;;;;;8419162;28;19920;-69
2022/03/12 01:00:48;;;;;;;;;;;10.50;49.80;;;;;;8422324;28;20359;-69
2022/03/12 01:04:50;;;;;;;;;;;10.50;50.00;;;;;;8417245;28;19928;-69
2022/03/12 01:08:52;;;;;;;;;;;10.50;49.50;;;;;;8417774;28;19924;-69
2022/03/12 01:12:54;;;;;;;;;;;10.50;49.20;;;;;;8421821;28;20030;-69
2022/03/12 01:16:56;;;;;;;;;;;10.50;50.20;;;;;;8418043;28;19931;-69
2022/03/12 01:21:06;;;;;;;;;;;10.50;49.90;;;;;;8414843;28;19920;-69
2022/03/12 01:25:08;;;;;;;;;;;10.50;49.50;;;;;;8409644;28;20338;-69
2022/03/12 01:29:09;;;;;;;;;;;10.50;50.20;;;;;;8417032;28;19920;-69
2022/03/12 01:33:11;;;;;;;;;;;10.50;50.00;;;;;;8414434;28;19920;-69
2022/03/12 01:37:19;;;;;;;;;;;10.50;49.90;;;;;;8415484;28;19924;-69
2022/03/12 01:41:22;;;;;;;;;;;10.50;49.70;;;;;;8397223;28;20371;-69
2022/03/12 01:45:27;;;;;;;;;;;10.50;51.20;;;;;;8398575;28;19923;-69
2022/03/12 01:49:29;;;;;;;;;;;10.50;52.30;;;;;;8398920;28;19946;-69
2022/03/12 01:53:31;;;;;;;;;;;10.50;51.90;;;;;;8409817;28;19958;-68
2022/03/12 01:57:32;;;;;;;;;;;10.40;52.60;;;;;;8419852;28;19920;-69
2022/03/12 02:01:34;;;;;;;;;;;10.30;55.40;;;;;;8420238;28;19928;-68
2022/03/12 02:05:36;;;;;;;;;;;10.30;53.50;;;;;;8416741;28;19920;-69
2022/03/12 02:09:39;;;;;;;;;;;10.30;54.10;;;;;;8416865;28;19927;-69
2022/03/12 02:13:40;;;;;;;;;;;10.30;55.00;;;;;;8396502;28;19943;-69
2022/03/12 02:17:42;;;;;;;;;;;10.20;57.30;;;;;;8414493;28;20351;-69
2022/03/12 02:21:51;;;;;;;;;;;10.20;56.40;;;;;;8418007;28;19920;-69
2022/03/12 02:25:53;;;;;;;;;;;10.20;55.30;;;;;;8413177;28;20383;-69
2022/03/12 02:29:57;;;;;;;;;;;10.20;57.00;;;;;;8421925;28;19924;-69
2022/03/12 02:34:02;;;;;;;;;;;10.20;57.30;;;;;;8415658;28;19939;-69
2022/03/12 02:38:04;;;;;;;;;;;10.20;57.40;;;;;;8387875;28;19920;-69
2022/03/12 02:42:08;;;;;;;;;;;10.20;57.80;;;;;;8414753;28;19924;-69
2022/03/12 02:46:10;;;;;;;;;;;10.20;58.10;;;;;;8412096;28;19926;-69
2022/03/12 02:50:12;;;;;;;;;;;10.20;58.30;;;;;;8415685;28;19927;-69
2022/03/12 02:54:14;;;;;;;;;;;10.20;60.80;;;;;;8411806;28;19920;-69
2022/03/12 02:58:16;;;;;;;;;;;10.20;61.20;;;;;;8417688;28;20382;-69
2022/03/12 03:02:23;;;;;;;;;;;10.20;61.00;;;;;;8429571;28;19924;-69
2022/03/12 03:06:25;;;;;;;;;;;10.20;60.70;;;;;;8415389;28;20387;-69
2022/03/12 03:10:33;;;;;;;;;;;10.20;60.90;;;;;;8416955;28;19940;-69
2022/03/12 03:14:37;;;;;;;;;;;10.20;63.40;;;;;;8404119;28;20361;-69
2022/03/12 03:18:39;;;;;;;;;;;10.20;63.60;;;;;;8401471;28;20260;-69
2022/03/12 03:22:41;;;;;;;;;;;10.20;61.00;;;;;;8419210;28;20333;-68
2022/03/12 03:26:43;;;;;;;;;;;10.20;61.20;;;;;;8418321;28;19954;-69
2022/03/12 03:30:44;;;;;;;;;;;10.20;60.70;;;;;;8422554;28;19923;-68
2022/03/12 03:34:47;;;;;;;;;;;10.20;61.30;;;;;;8406607;28;19920;-69
2022/03/12 03:38:48;;;;;;;;;;;10.20;61.50;;;;;;8427543;28;19953;-69
2022/03/12 03:42:50;;;;;;;;;;;10.10;63.20;;;;;;8419715;28;19927;-68
2022/03/12 03:46:52;;;;;;;;;;;10.10;61.70;;;;;;8418919;28;19924;-69
2022/03/12 03:50:54;;;;;;;;;;;10.00;62.70;;;;;;8422301;28;19924;-69
2022/03/12 03:54:55;;;;;;;;;;;9.90;66.70;;;;;;8413044;28;19924;-69
2022/03/12 03:58:57;;;;;;;;;;;9.90;65.00;;;;;;8419538;28;19924;-69
2022/03/12 04:03:05;;;;;;;;;;;9.80;65.20;;;;;;8416426;28;19927;-69
2022/03/12 04:07:06;;;;;;;;;;;9.70;63.60;;;;;;8412783;28;19920;-69
2022/03/12 04:11:17;;;;;;;;;;;9.70;62.90;;;;;;8413215;28;20003;-69
2022/03/12 04:15:20;;;;;;;;;;;9.60;66.20;;;;;;8417305;28;19920;-69
2022/03/12 04:19:22;;;;;;;;;;;9.50;64.40;;;;;;8420050;28;19920;-69
2022/03/12 04:23:25;;;;;;;;;;;9.50;65.30;;;;;;8418835;28;19927;-69
2022/03/12 04:27:28;;;;;;;;;;;9.40;66.40;;;;;;8392560;28;19920;-69
2022/03/12 04:31:30;;;;;;;;;;;9.40;66.50;;;;;;8418654;28;19919;-69
2022/03/12 04:35:32;;;;;;;;;;;9.30;66.20;;;;;;8414534;28;20562;-69
2022/03/12 04:39:34;;;;;;;;;;;9.30;67.60;;;;;;8394818;28;19924;-69
2022/03/12 04:43:35;;;;;;;;;;;9.20;64.60;;;;;;8426056;28;19924;-69
2022/03/12 04:47:41;;;;;;;;;;;9.20;65.40;;;;;;8414766;28;20364;-69
2022/03/12 04:51:43;;;;;;;;;;;9.10;64.70;;;;;;8404209;28;19965;-69
2022/03/12 04:55:45;;;;;;;;;;;9.10;65.20;;;;;;8422524;28;19927;-69
2022/03/12 04:59:46;;;;;;;;;;;9.00;65.20;;;;;;8420070;28;19924;-69
2022/03/12 05:03:49;;;;;;;;;;;9.00;66.20;;;;;;8424473;28;20315;-69
2022/03/12 05:07:51;;;;;;;;;;;9.00;67.10;;;;;;8417299;28;20390;-69
2022/03/12 05:11:53;;;;;;;;;;;9.00;67.60;;;;;;8399687;28;20364;-69
2022/03/12 05:15:57;;;;;;;;;;;9.10;68.50;;;;;;8416021;28;19920;-69
2022/03/12 05:19:59;;;;;;;;;;;9.00;74.20;;;;;;8416157;28;19920;-69
2022/03/12 05:24:00;;;;;;;;;;;9.00;73.30;;;;;;8416886;28;19940;-69
2022/03/12 05:28:02;;;;;;;;;;;9.00;74.70;;;;;;8419267;28;19920;-69
2022/03/12 05:32:05;;;;;;;;;;;9.00;73.10;;;;;;8414718;28;19920;-69
2022/03/12 05:36:06;;;;;;;;;;;9.00;72.70;;;;;;8413007;28;19920;-69
2022/03/12 05:40:11;;;;;;;;;;;8.90;70.50;;;;;;8398775;28;21364;-69
2022/03/12 05:44:16;;;;;;;;;;;8.90;71.50;;;;;;8406882;28;20303;-69
2022/03/12 05:48:18;;;;;;;;;;;8.80;71.20;;;;;;8419862;28;19955;-69
2022/03/12 05:52:21;;;;;;;;;;;8.80;73.00;;;;;;8402911;28;19924;-69
2022/03/12 05:56:22;;;;;;;;;;;8.80;72.80;;;;;;8390438;28;19924;-69
2022/03/12 06:00:24;;;;;;;;;;;8.70;77.30;;;;;;8414039;28;19924;-69
2022/03/12 06:04:29;;;;;;;;;;;8.70;83.50;;;;;;8418584;28;19981;-69
2022/03/12 06:08:33;;;;;;;;;;;8.60;76.40;;;;;;8409135;28;19924;-69
2022/03/12 06:12:35;;;;;;;;;;;8.60;76.80;;;;;;8408558;28;19976;-69
2022/03/12 06:16:36;;;;;;;;;;;8.60;86.40;;;;;;8413301;28;19932;-69
2022/03/12 06:20:38;;;;;;;;;;;8.70;83.80;;;;;;8429375;28;19927;-69
2022/03/12 06:24:40;;;;;;;;;;;8.70;84.80;;;;;;8427262;28;20410;-69
2022/03/12 06:28:43;;;;;;;;;;;8.80;81.20;;;;;;8419748;28;19924;-68
2022/03/12 06:32:44;;;;;;;;;;;8.90;86.60;;;;;;8422671;28;19981;-69
2022/03/12 06:36:46;;;;;;;;;;;8.90;82.70;;;;;;8421285;28;19932;-68
2022/03/12 06:40:49;;;;;;;;;;;8.90;82.50;;;;;;8419963;28;19929;-69
2022/03/12 06:44:53;;;;;;;;;;;9.00;84.00;;;;;;8426813;28;19993;-69
2022/03/12 06:48:55;;;;;;;;;;;9.00;86.80;;;;;;8414047;28;19928;-69
2022/03/12 06:52:57;;;;;;;;;;;9.00;85.50;;;;;;8404108;28;19976;-69
2022/03/12 06:57:01;;;;;;;;;;;9.10;85.70;;;;;;8405400;28;19931;-68
2022/03/12 07:01:03;;;;;;;;;;;9.10;85.70;;;;;;8412043;28;19932;-69
2022/03/12 07:05:05;;;;;;;;;;;9.10;84.00;;;;;;8407843;28;19932;-69
2022/03/12 07:09:07;;;;;;;;;;;9.20;86.40;;;;;;8385474;28;19928;-69
2022/03/12 07:13:09;;;;;;;;;;;9.20;86.60;;;;;;8386071;28;20275;-69
2022/03/12 07:17:10;;;;;;;;;;;9.30;87.10;;;;;;8387742;28;19925;-69
2022/03/12 07:21:12;;;;;;;;;;;9.30;92.40;;;;;;8416337;28;19931;-69
2022/03/12 07:25:14;;;;;;;;;;;9.30;92.40;;;;;;8400542;28;19958;-69
2022/03/12 07:29:16;;;;;;;;;;;9.30;90.30;;;;;;8394465;28;19929;-69
2022/03/12 07:33:17;;;;;;;;;;;9.40;90.00;;;;;;8420178;28;20365;-69
2022/03/12 07:37:21;;;;;;;;;;;9.50;91.50;;;;;;8396528;28;19932;-69
2022/03/12 07:41:22;;;;;;;;;;;9.50;90.90;;;;;;8403663;28;19924;-69
2022/03/12 07:45:24;;;;;;;;;;;9.60;91.20;;;;;;8417796;28;19924;-69
2022/03/12 07:49:26;;;;;;;;;;;9.60;91.80;;;;;;8417595;28;19970;-69
2022/03/12 07:53:28;;;;;;;;;;;9.70;95.00;;;;;;8410341;28;19935;-69
2022/03/12 07:57:30;;;;;;;;;;;9.80;92.50;;;;;;8402547;28;19956;-69
2022/03/12 08:01:33;;;;;;;;;;;9.90;92.90;;;;;;8398263;28;19930;-69
2022/03/12 08:05:36;;;;;;;;;;;10.10;93.30;;;;;;8418710;28;19931;-69
2022/03/12 08:09:38;;;;;;;;;;;10.30;93.40;;;;;;8420307;28;19928;-69
2022/03/12 08:13:40;;;;;;;;;;;10.30;92.20;;;;;;8417590;28;19924;-69
2022/03/12 08:17:42;;;;;;;;;;;10.50;93.30;;;;;;8414989;28;19932;-69
2022/03/12 08:21:45;;;;;;;;;;;10.60;93.70;;;;;;8422785;28;19931;-69
2022/03/12 08:25:48;;;;;;;;;;;10.70;96.80;;;;;;8389874;28;19931;-68
2022/03/12 08:29:49;;;;;;;;;;;10.70;96.20;;;;;;8416988;28;19946;-69
2022/03/12 08:33:51;;;;;;;;;;;10.80;97.20;;;;;;8422107;28;19924;-69
2022/03/12 08:37:53;;;;;;;;;;;10.90;95.40;;;;;;8412230;28;19925;-69
2022/03/12 08:41:55;;;;;;;;;;;11.00;94.60;;;;;;8420390;28;19930;-69
2022/03/12 08:45:57;;;;;;;;;;;11.10;96.90;;;;;;8414772;28;19938;-69
2022/03/12 08:49:58;;;;;;;;;;;11.20;98.10;;;;;;8425727;28;19932;-69
2022/03/12 08:54:02;;;;;;;;;;;11.30;99.00;;;;;;8409933;28;19931;-69
2022/03/12 08:58:03;;;;;;;;;;;11.40;98.40;;;;;;8409698;28;19947;-69
2022/03/12 09:02:05;;;;;;;;;;;11.50;99.90;;;;;;8410400;28;19932;-69
2022/03/12 09:06:07;;;;;;;;;;;11.60;99.40;;;;;;8408982;28;20260;-69
2022/03/12 09:10:11;;;;;;;;;;;11.80;99.70;;;;;;8397084;28;20292;-69
2022/03/12 09:14:13;;;;;;;;;;;12.00;98.90;;;;;;8415429;28;19993;-69
2022/03/12 09:18:15;;;;;;;;;;;12.00;99.60;;;;;;8419114;28;20331;-69
2022/03/12 09:22:17;;;;;;;;;;;12.00;99.80;;;;;;8411650;28;19932;-69
2022/03/12 09:26:21;;;;;;;;;;;12.00;99.30;;;;;;8407289;28;19971;-69
2022/03/12 09:30:22;;;;;;;;;;;12.10;99.10;;;;;;8404257;28;20442;-69
2022/03/12 09:34:24;;;;;;;;;;;12.10;99.90;;;;;;8400920;28;19928;-69
2022/03/12 09:38:26;;;;;;;;;;;12.00;99.80;;;;;;8416437;28;19947;-69
2022/03/12 09:42:30;;;;;;;;;;;12.00;99.80;;;;;;8408251;28;19924;-69
2022/03/12 09:46:32;;;;;;;;;;;12.00;99.80;;;;;;8386119;28;19978;-69
2022/03/12 09:50:34;;;;;;;;;;;12.10;99.90;;;;;;8410993;28;19978;-69
2022/03/12 09:54:36;;;;;;;;;;;12.20;99.90;;;;;;8388892;28;20380;-68
2022/03/12 09:58:37;;;;;;;;;;;12.30;99.90;;;;;;8414240;28;19932;-69
2022/03/12 10:02:39;;;;;;;;;;;12.40;99.90;;;;;;8415184;28;19928;-69
2022/03/12 10:06:44;;;;;;;;;;;12.40;99.90;;;;;;8406166;28;19967;-69
2022/03/12 10:10:45;;;;;;;;;;;12.40;99.90;;;;;;8404046;28;19924;-69
2022/03/12 10:14:48;;;;;;;;;;;12.30;99.90;;;;;;8414997;28;19960;-69
2022/03/12 10:18:49;;;;;;;;;;;12.40;99.80;;;;;;8407738;28;19936;-69
2022/03/12 10:22:52;;;;;;;;;;;12.50;99.50;;;;;;8396738;28;20392;-69
2022/03/12 10:26:54;;;;;;;;;;;12.50;99.70;;;;;;8407925;28;19929;-69
2022/03/12 10:30:56;;;;;;;;;;;12.70;99.30;;;;;;8408658;28;19935;-69
2022/03/12 10:34:59;;;;;;;;;;;12.70;99.40;;;;;;8384716;28;20395;-69
2022/03/12 10:39:01;;;;;;;;;;;12.80;98.90;;;;;;8396984;28;20351;-69
2022/03/12 10:43:05;;;;;;;;;;;12.90;98.90;;;;;;8409340;28;20397;-69
2022/03/12 10:47:19;;;;;;;;;;;13.10;99.00;;;;;;8385290;28;20418;-69
2022/03/12 10:51:22;;;;;;;;;;;13.40;99.50;;;;;;8403686;28;19928;-69
2022/03/12 10:55:28;;;;;;;;;;;13.90;99.90;;;;;;8409218;28;19932;-69
2022/03/12 10:59:30;;;;;;;;;;;14.10;98.20;;;;;;8412545;28;19928;-69
2022/03/12 11:03:35;;;;;;;;;;;14.10;98.40;;;;;;8413906;28;19934;-69
2022/03/12 11:07:36;;;;;;;;;;;13.80;97.90;;;;;;8416873;28;19924;-69
2022/03/12 11:11:39;;;;;;;;;;;13.70;97.60;;;;;;8415189;28;20295;-69
2022/03/12 11:15:42;;;;;;;;;;;14.00;98.80;;;;;;8400755;28;19923;-69
2022/03/12 11:19:45;;;;;;;;;;;14.40;97.50;;;;;;8401958;28;19928;-69
2022/03/12 11:23:47;;;;;;;;;;;14.40;97.20;;;;;;8371261;28;19924;-68
2022/03/12 11:27:50;;;;;;;;;;;14.60;97.00;;;;;;8393634;28;19944;-69
2022/03/12 11:32:04;;;;;;;;;;;14.90;97.30;;;;;;8403092;28;19978;-69
2022/03/12 11:36:09;;;;;;;;;;;14.90;96.00;;;;;;8402377;28;19924;-69
2022/03/12 11:40:16;;;;;;;;;;;14.80;96.40;;;;;;8402016;28;19932;-69
2022/03/12 11:44:20;;;;;;;;;;;14.70;95.60;;;;;;8390100;28;19951;-69
2022/03/12 11:48:22;;;;;;;;;;;14.50;94.80;;;;;;8403766;28;19943;-69
2022/03/12 11:52:24;;;;;;;;;;;14.50;95.30;;;;;;8385965;28;20363;-69
2022/03/12 11:56:27;;;;;;;;;;;14.50;95.20;;;;;;8399248;28;19947;-69
2022/03/12 12:00:29;;;;;;;;;;;14.50;95.00;;;;;;8409534;28;19925;-69
2022/03/12 12:04:32;;;;;;;;;;;14.80;95.60;;;;;;8424614;28;20348;-69
2022/03/12 12:08:35;;;;;;;;;;;15.00;94.90;;;;;;8404538;28;20386;-69
2022/03/12 12:12:37;;;;;;;;;;;15.50;95.60;;;;;;8419476;28;19947;-69
2022/03/12 12:16:38;;;;;;;;;;;15.90;95.20;;;;;;8419523;28;19924;-69
2022/03/12 12:20:41;;;;;;;;;;;16.00;95.00;;;;;;8419712;28;20406;-69
2022/03/12 12:24:43;;;;;;;;;;;16.00;94.40;;;;;;8396647;28;20363;-69
2022/03/12 12:28:47;;;;;;;;;;;16.20;94.40;;;;;;8419196;28;19931;-69
2022/03/12 12:32:49;;;;;;;;;;;16.40;95.60;;;;;;8411604;28;20307;-69
2022/03/12 12:36:58;;;;;;;;;;;16.70;95.20;;;;;;8417608;28;19932;-69
2022/03/12 12:41:03;;;;;;;;;;;17.30;95.70;;;;;;8420013;28;19932;-69
2022/03/12 12:45:07;;;;;;;;;;;17.60;92.40;;;;;;8419622;28;19944;-69
2022/03/12 12:49:08;;;;;;;;;;;17.70;93.70;;;;;;8425113;28;19931;-69
2022/03/12 12:53:12;;;;;;;;;;;18.00;93.00;;;;;;8405894;28;19989;-69
2022/03/12 12:57:14;;;;;;;5.77;2.70;;;18.30;94.80;;;;;;8409709;28;20364;-70
2022/03/12 13:01:17;;;;;;;;;;;18.20;94.10;;;;;;8395617;28;19924;-69
2022/03/12 13:05:23;;;;;;;;;;;17.80;92.70;;;;;;8400977;28;20414;-69
2022/03/12 13:09:31;;;;;;;;;;;17.50;90.80;;;;;;8407362;28;19927;-69
2022/03/12 13:13:33;;;;;;;;;;;17.20;90.50;;;;;;8386094;28;19921;-69
2022/03/12 13:17:36;;;;;;;;;;;17.20;90.30;;;;;;8412899;28;19920;-69
2022/03/12 13:21:39;;;;;;;;;;;17.30;90.20;;;;;;8412393;28;19996;-69
2022/03/12 13:25:59;;;;;;;;;;;17.40;90.00;;;;;;8407892;28;19924;-69
2022/03/12 13:30:14;;;;;;;;;;;17.40;89.10;;;;;;8402737;28;19931;-69
2022/03/12 13:34:16;;;;;;;;;;;17.30;88.40;;;;;;8408004;28;19973;-69
2022/03/12 13:38:22;;;;;;;;;;;17.10;86.90;;;;;;8407801;28;20295;-69
2022/03/12 13:42:24;;;;;;;;;;;17.40;88.90;;;;;;8406093;28;19920;-69
2022/03/12 13:46:28;;;;;;;;;;;17.50;87.70;;;;;;8419130;28;19920;-69
2022/03/12 13:50:30;;;;;;;;;;;17.50;85.50;;;;;;8409434;28;19920;-69
2022/03/12 13:54:31;;;;;;;;;;;17.50;86.60;;;;;;8410082;28;20260;-69
2022/03/12 13:58:33;;;;;;;;;;;17.60;85.50;;;;;;8410131;28;19927;-69
2022/03/12 14:02:44;;;;;;;;;;;17.50;84.80;;;;;;8406822;28;20390;-69
2022/03/12 14:06:46;;;;;;;;;;;17.40;84.10;;;;;;8408343;28;19928;-69
2022/03/12 14:10:50;;;;;;;;;;;17.50;84.20;;;;;;8412224;28;19924;-69
2022/03/12 14:14:52;;;;;;;;;;;17.60;85.00;;;;;;8414886;28;19966;-69
2022/03/12 14:19:00;;;;;;;;;;;17.70;84.70;;;;;;8392622;28;20140;-69
2022/03/12 14:23:01;;;;;;;;;;;17.90;84.30;;;;;;8419058;28;19920;-69
2022/03/12 14:27:27;;;;;;;;;;;17.70;81.20;;;;;;8403224;28;19963;-69
2022/03/12 14:31:28;;;;;;;;;;;18.00;85.00;;;;;;8411356;28;19920;-69
2022/03/12 14:35:30;;;;;;;;;;;18.80;86.90;;;;;;8413294;28;19975;-69
2022/03/12 14:39:33;;;;;;;;;;;19.70;85.40;;;;;;8400927;28;19924;-69
2022/03/12 14:43:35;;;;;;;;;;;20.20;87.50;;;;;;8418393;28;20283;-70
2022/03/12 14:47:37;;;;;;;;;;;20.80;90.90;;;;;;8422049;28;19927;-69
2022/03/12 14:51:46;;;;;;;;;;;21.80;91.30;;;;;;8423167;28;19934;-69
2022/03/12 14:55:49;;;;;;;5.45;2.20;;;22.40;90.30;;;;;;8415957;28;19924;-69
2022/03/12 14:59:52;;;;;;;4.97;1.55;;;21.90;82.70;;;;;;8402425;28;20479;-70
2022/03/12 15:03:54;;;;;;;;;;;21.60;82.60;;;;;;8406648;28;20044;-70
2022/03/12 15:08:01;;;;;;;5.32;1.90;;;21.80;83.30;;;;;;8427634;28;19920;-70
2022/03/12 15:12:10;;;;;;;4.60;1.70;;;22.30;81.90;;;;;;8418632;28;20078;-70
2022/03/12 15:16:30;;;;;;;;;;;22.40;79.80;;;;;;8399842;28;20051;-70
2022/03/12 15:20:34;;;;;;;5.40;1.60;;;22.40;81.80;;;;;;8417524;28;20011;-70
2022/03/12 15:24:39;;;;;;;5.22;1.70;;;22.20;76.10;;;;;;8414686;28;20048;-70
2022/03/12 15:28:46;;;;;;;;;;;22.00;78.30;;;;;;8421260;28;20071;-70
2022/03/12 15:32:49;;;;;;;;;;;22.00;77.30;;;;;;8418537;28;19920;-69
2022/03/12 15:36:51;;;;;;;;;;;21.40;75.70;;;;;;8426300;28;19924;-69
2022/03/12 15:40:52;;;;;;;;;;;21.30;75.80;;;;;;8424079;28;19924;-69
2022/03/12 15:44:54;;;;;;;;;;;20.90;71.10;;;;;;8421543;28;20272;-69
2022/03/12 15:49:01;;;;;;;;;;;20.20;70.20;;;;;;8418199;28;19959;-69
2022/03/12 15:53:04;;;;;;;;;;;19.70;69.90;;;;;;8397565;28;19928;-69
2022/03/12 15:57:05;;;;;;;;;;;19.40;69.60;;;;;;8420791;28;19927;-69
2022/03/12 16:01:07;;;;;;;;;;;19.00;69.50;;;;;;8421651;28;20386;-69
2022/03/12 16:05:10;;;;;;;;;;;18.80;69.00;;;;;;8418143;28;19926;-69
2022/03/12 16:09:11;;;;;;;;;;;18.60;69.30;;;;;;8419446;28;20228;-69
2022/03/12 16:13:13;;;;;;;;;;;18.30;69.10;;;;;;8413794;28;19928;-69
2022/03/12 16:17:17;;;;;;;;;;;18.10;69.00;;;;;;8401139;28;19920;-69
2022/03/12 16:21:19;;;;;;;;;;;17.90;69.20;;;;;;8422464;28;19920;-69
2022/03/12 16:25:20;;;;;;;;;;;17.70;70.10;;;;;;8414824;28;19935;-69
2022/03/12 16:29:22;;;;;;;;;;;17.60;69.70;;;;;;8420538;28;19939;-69
2022/03/12 16:33:27;;;;;;;;;;;17.50;70.00;;;;;;8418091;28;19924;-69
2022/03/12 16:37:29;;;;;;;;;;;17.40;69.90;;;;;;8423814;28;19920;-69
2022/03/12 16:41:35;;;;;;;;;;;17.30;69.90;;;;;;8418891;28;19923;-69
2022/03/12 16:45:37;;;;;;;;;;;17.20;70.10;;;;;;8417581;28;19920;-69
2022/03/12 16:49:39;;;;;;;;;;;17.10;70.00;;;;;;8398877;28;19924;-69
2022/03/12 16:53:45;;;;;;;;;;;16.90;70.00;;;;;;8387740;28;20202;-69
2022/03/12 16:57:47;;;;;;;;;;;16.60;70.20;;;;;;8388426;28;20371;-69
2022/03/12 17:01:49;;;;;;;;;;;16.40;70.50;;;;;;8386857;28;19934;-69
2022/03/12 17:05:51;;;;;;;;;;;16.20;71.10;;;;;;8384262;28;20429;-69
2022/03/12 17:09:53;;;;;;;;;;;16.10;71.60;;;;;;8387403;28;19928;-69
2022/03/12 17:13:55;;;;;;;;;;;15.90;72.20;;;;;;8384692;28;19984;-69
2022/03/12 17:17:58;;;;;;;;;;;15.80;72.50;;;;;;8388361;28;19973;-69
2022/03/12 17:22:00;;;;;;;;;;;15.80;72.70;;;;;;8389455;28;20030;-69
2022/03/12 17:26:08;;;;;;;;;;;15.80;73.20;;;;;;8380318;28;20376;-69
2022/03/12 17:30:11;;;;;;;;;;;15.70;73.90;;;;;;8385625;28;19928;-69
2022/03/12 17:34:14;;;;;;;;;;;15.60;74.50;;;;;;8384782;28;19924;-69
2022/03/12 17:38:16;;;;;;;;;;;15.60;73.80;;;;;;8379979;28;20373;-69
2022/03/12 17:42:18;;;;;;;;;;;15.50;74.20;;;;;;8387002;28;19924;-69
2022/03/12 17:46:20;;;;;;;;;;;15.40;74.30;;;;;;8369010;28;19928;-69
2022/03/12 17:50:22;;;;;;;;;;;15.40;74.60;;;;;;8386119;28;19978;-69
2022/03/12 17:54:24;;;;;;;;;;;15.40;74.80;;;;;;8387058;28;19920;-69
2022/03/12 17:58:31;;;;;;;;;;;15.30;75.00;;;;;;8384317;28;19920;-69
2022/03/12 18:02:33;;;;;;;;;;;15.30;75.20;;;;;;8388585;28;20368;-69
2022/03/12 18:06:35;;;;;;;;;;;15.30;75.70;;;;;;8381107;28;19920;-69
2022/03/12 18:10:37;;;;;;;;;;;15.20;75.40;;;;;;8385921;28;19963;-69
2022/03/12 18:14:39;;;;;;;;;;;15.20;75.50;;;;;;8387436;28;19924;-69
2022/03/12 18:18:43;;;;;;;;;;;15.10;76.00;;;;;;8375003;28;19928;-69
2022/03/12 18:22:49;;;;;;;;;;;15.00;76.10;;;;;;8396958;28;19920;-69
2022/03/12 18:26:52;;;;;;;;;;;14.90;76.30;;;;;;8390968;28;19928;-69
2022/03/12 18:30:53;;;;;;;;;;;14.90;76.10;;;;;;8393738;28;19920;-70
2022/03/12 18:34:55;;;;;;;;;;;14.90;76.40;;;;;;8385984;28;19928;-69
2022/03/12 18:38:57;;;;;;;;;;;14.80;76.80;;;;;;8395993;28;20293;-69
2022/03/12 18:42:58;;;;;;;;;;;14.70;77.10;;;;;;8396372;28;19928;-69
2022/03/12 18:47:00;;;;;;;;;;;14.70;76.90;;;;;;8396884;28;19920;-69
2022/03/12 18:51:02;;;;;;;;;;;14.70;76.90;;;;;;8390364;28;19962;-69
2022/03/12 18:55:05;;;;;;;;;;;14.70;76.90;;;;;;8390972;28;20311;-69
2022/03/12 18:59:06;;;;;;;;;;;14.60;77.10;;;;;;8390188;28;20285;-69
2022/03/12 19:03:14;;;;;;;;;;;14.60;77.20;;;;;;8386712;28;19955;-69
2022/03/12 19:07:18;;;;;;;;;;;14.60;78.70;;;;;;8393437;28;19927;-69
2022/03/12 19:11:20;;;;;;;;;;;14.50;78.30;;;;;;8396482;28;19935;-69
2022/03/12 19:15:21;;;;;;;;;;;14.40;77.80;;;;;;8374772;28;20663;-69
2022/03/12 19:19:23;;;;;;;;;;;14.40;78.00;;;;;;8392406;28;19927;-69
2022/03/12 19:23:25;;;;;;;;;;;14.30;78.40;;;;;;8390427;28;20663;-69
2022/03/12 19:27:27;;;;;;;;;;;14.30;79.80;;;;;;8391663;28;19924;-69
2022/03/12 19:31:29;;;;;;;;;;;14.20;79.30;;;;;;8374271;28;20380;-68
2022/03/12 19:35:31;;;;;;;;;;;14.20;79.00;;;;;;8374191;28;20359;-69
2022/03/12 19:39:33;;;;;;;;;;;14.10;79.90;;;;;;8392756;28;19924;-69
2022/03/12 19:43:35;;;;;;;;;;;14.10;79.60;;;;;;8390600;28;19987;-69
2022/03/12 19:47:37;;;;;;;;;;;14.10;79.80;;;;;;8390897;28;19966;-69
2022/03/12 19:51:41;;;;;;;;;;;14.00;80.00;;;;;;8393567;28;19953;-69
2022/03/12 19:55:43;;;;;;;;;;;14.00;79.40;;;;;;8392547;28;19924;-69
2022/03/12 19:59:45;;;;;;;;;;;14.00;79.90;;;;;;8389793;28;19935;-69
2022/03/12 20:03:47;;;;;;;;;;;14.00;79.80;;;;;;8395656;28;19988;-69
2022/03/12 20:07:48;;;;;;;;;;;13.90;80.20;;;;;;8397506;28;20244;-69
2022/03/12 20:11:52;;;;;;;;;;;13.90;80.40;;;;;;8388155;28;19927;-69
2022/03/12 20:15:54;;;;;;;;;;;13.90;81.00;;;;;;8393766;28;19924;-68
2022/03/12 20:19:57;;;;;;;;;;;13.80;80.70;;;;;;8393844;28;20462;-69
2022/03/12 20:24:00;;;;;;;;;;;13.80;80.80;;;;;;8389476;28;19920;-69
2022/03/12 20:28:04;;;;;;;;;;;13.70;80.80;;;;;;8392557;28;19931;-68
2022/03/12 20:32:06;;;;;;;;;;;13.70;80.60;;;;;;8375140;28;19920;-69
2022/03/12 20:36:08;;;;;;;;;;;13.60;80.40;;;;;;8390929;28;20334;-69
2022/03/12 20:40:10;;;;;;;;;;;13.50;80.50;;;;;;8371756;28;19920;-69
2022/03/12 20:44:12;;;;;;;;;;;13.50;81.50;;;;;;8386281;28;20325;-69
2022/03/12 20:48:14;;;;;;;;;;;13.40;81.40;;;;;;8390173;28;19928;-69
2022/03/12 20:52:16;;;;;;;;;;;13.40;80.80;;;;;;8388799;28;19920;-69
2022/03/12 20:56:18;;;;;;;;;;;13.40;81.40;;;;;;8391775;28;19920;-69
2022/03/12 21:00:19;;;;;;;;;;;13.40;80.70;;;;;;8392073;28;19975;-69
2022/03/12 21:04:21;;;;;;;;;;;13.30;81.50;;;;;;8388219;28;20007;-69
2022/03/12 21:08:23;;;;;;;;;;;13.30;80.80;;;;;;8390686;28;19924;-69
2022/03/12 21:12:25;;;;;;;;;;;13.30;80.40;;;;;;8387139;28;20280;-69
2022/03/12 21:16:26;;;;;;;;;;;13.20;80.50;;;;;;8372010;28;20154;-69
2022/03/12 21:20:31;;;;;;;;;;;13.10;81.10;;;;;;8366247;28;20380;-69
2022/03/12 21:24:33;;;;;;;;;;;13.10;80.50;;;;;;8367289;28;20380;-69
2022/03/12 21:28:35;;;;;;;;;;;13.10;80.80;;;;;;8382697;28;19928;-69
2022/03/12 21:32:37;;;;;;;;;;;13.00;81.10;;;;;;8380490;28;19928;-69
2022/03/12 21:36:39;;;;;;;;;;;12.90;81.30;;;;;;8375502;28;19928;-69
2022/03/12 21:40:41;;;;;;;;;;;12.90;81.30;;;;;;8382537;28;19963;-69
2022/03/12 21:44:42;;;;;;;;;;;12.80;81.70;;;;;;8380844;28;20302;-69
2022/03/12 21:48:44;;;;;;;;;;;12.70;82.20;;;;;;8366588;28;20336;-69
2022/03/12 21:52:46;;;;;;;;;;;12.70;82.20;;;;;;8396251;28;19943;-69
2022/03/12 21:56:47;;;;;;;;;;;12.70;81.80;;;;;;8378002;28;19920;-69
2022/03/12 22:00:49;;;;;;;;;;;12.60;81.40;;;;;;8380275;28;19928;-69
2022/03/12 22:04:51;;;;;;;;;;;12.60;81.60;;;;;;8403868;28;19928;-69
2022/03/12 22:08:53;;;;;;;;;;;12.60;81.90;;;;;;8408839;28;19923;-69
2022/03/12 22:12:56;;;;;;;;;;;12.50;81.80;;;;;;8401533;28;19931;-69
2022/03/12 22:16:58;;;;;;;;;;;12.40;82.40;;;;;;8399044;28;19928;-69
2022/03/12 22:21:01;;;;;;;;;;;12.40;82.50;;;;;;8400061;28;19935;-69
2022/03/12 22:25:04;;;;;;;;;;;12.40;82.10;;;;;;8410281;28;19928;-69
2022/03/12 22:29:06;;;;;;;;;;;12.40;82.10;;;;;;8412633;28;20367;-69
2022/03/12 22:33:07;;;;;;;;;;;12.30;83.50;;;;;;8393935;28;19923;-69
2022/03/12 22:37:11;;;;;;;;;;;12.40;82.20;;;;;;8397511;28;19920;-69
2022/03/12 22:41:12;;;;;;;;;;;12.30;84.30;;;;;;8400281;28;19925;-69
2022/03/12 22:45:15;;;;;;;;;;;12.30;82.80;;;;;;8388694;28;19920;-69
2022/03/12 22:49:18;;;;;;;;;;;12.30;83.10;;;;;;8406044;28;20005;-69
2022/03/12 22:53:20;;;;;;;;;;;12.30;84.50;;;;;;8393984;28;19920;-69
2022/03/12 22:57:22;;;;;;;;;;;12.30;82.90;;;;;;8400808;28;19920;-69
2022/03/12 23:01:29;;;;;;;;;;;12.30;84.50;;;;;;8403010;28;20279;-69
2022/03/12 23:09:54;;;;;;;;;;;12.20;84.10;;;;;;8409258;28;19920;-69
2022/03/12 23:13:59;;;;;;;;;;;12.20;84.00;;;;;;8408123;28;20292;-69
2022/03/12 23:18:03;;;;;;;;;;;12.20;84.50;;;;;;8385785;28;19920;-69
2022/03/12 23:22:14;;;;;;;;;;;12.10;84.00;;;;;;8411696;28;20417;-69
2022/03/12 23:26:15;;;;;;;;;;;12.20;84.90;;;;;;8410110;28;19928;-69
2022/03/12 23:30:19;;;;;;;;;;;12.20;84.40;;;;;;8409509;28;19920;-69
2022/03/12 23:34:20;;;;;;;;;;;12.10;84.00;;;;;;8413949;28;20253;-69